Time,TemperatureF,DewpointF,PressureIn,WindDirection,WindDirectionDegrees,WindSpeedMPH,WindSpeedGustMPH,Humidity,HourlyPrecipIn,Conditions,Clouds,dailyrainin,SolarRadiationWatts/m^2,SoftwareType,DateUTC
2013-10-25 00:04:00,45.0,43.0,30.27,NNE,17,2.0,6.0,91,0.00,,,0.00,0.000000,,2013-10-25 04:04:00,
2013-10-25 00:10:00,45.0,42.0,30.28,North,349,3.0,6.0,90,0.00,,,0.00,0.000000,,2013-10-25 04:10:00,
2013-10-25 00:44:00,45.0,42.0,30.28,North,349,3.0,6.0,90,0.00,,,0.00,0.000000,,2013-10-25 04:44:00,
2013-10-25 00:54:00,45.0,42.0,30.28,North,349,3.0,6.0,90,0.00,,,0.00,0.000000,,2013-10-25 04:54:00,
2013-10-25 01:03:00,45.0,42.0,30.28,North,349,3.0,6.0,90,0.00,,,0.00,0.000000,,2013-10-25 05:03:00,
2013-10-25 01:10:00,43.0,41.0,30.28,NE,50,1.0,4.0,91,0.00,,,0.00,0.000000,,2013-10-25 05:10:00,
2013-10-25 01:42:00,43.0,41.0,30.28,NE,50,1.0,4.0,91,0.00,,,0.00,0.000000,,2013-10-25 05:42:00,
2013-10-25 01:51:00,43.0,41.0,30.28,NE,50,1.0,4.0,91,0.00,,,0.00,0.000000,,2013-10-25 05:51:00,
2013-10-25 02:01:00,43.0,41.0,30.28,NE,50,1.0,4.0,91,0.00,,,0.00,0.000000,,2013-10-25 06:01:00,
2013-10-25 02:10:00,47.0,36.0,30.30,NE,54,7.0,13.0,65,0.00,,,0.00,0.000000,,2013-10-25 06:10:00,
2013-10-25 02:41:00,47.0,36.0,30.30,NE,54,7.0,13.0,65,0.00,,,0.00,0.000000,,2013-10-25 06:41:00,
2013-10-25 02:51:00,47.0,36.0,30.30,NE,54,7.0,13.0,65,0.00,,,0.00,0.000000,,2013-10-25 06:51:00,
2013-10-25 03:01:00,47.0,36.0,30.30,NE,54,7.0,13.0,65,0.00,,,0.00,0.000000,,2013-10-25 07:01:00,
2013-10-25 03:10:00,43.0,37.0,30.31,NE,53,3.0,11.0,80,0.00,,,0.00,0.000000,,2013-10-25 07:10:00,
2013-10-25 03:41:00,43.0,37.0,30.31,NE,53,3.0,11.0,80,0.00,,,0.00,0.000000,,2013-10-25 07:41:00,
2013-10-25 03:51:00,43.0,37.0,30.31,NE,53,3.0,11.0,80,0.00,,,0.00,0.000000,,2013-10-25 07:51:00,
2013-10-25 04:01:00,43.0,37.0,30.31,NE,53,3.0,11.0,80,0.00,,,0.00,0.000000,,2013-10-25 08:01:00,
2013-10-25 04:10:00,42.0,38.0,30.33,NNE,20,2.0,5.0,85,0.00,,,0.00,0.000000,,2013-10-25 08:10:00,
2013-10-25 04:41:00,42.0,38.0,30.33,NNE,20,2.0,5.0,85,0.00,,,0.00,0.000000,,2013-10-25 08:41:00,
2013-10-25 04:51:00,42.0,38.0,30.33,NNE,20,2.0,5.0,85,0.00,,,0.00,0.000000,,2013-10-25 08:51:00,
2013-10-25 05:01:00,42.0,38.0,30.33,NNE,20,2.0,5.0,85,0.00,,,0.00,0.000000,,2013-10-25 09:01:00,
2013-10-25 05:10:00,40.0,37.0,30.34,NE,50,3.0,7.0,89,0.00,,,0.00,0.000000,,2013-10-25 09:10:00,
2013-10-25 05:42:00,40.0,37.0,30.34,NE,50,3.0,7.0,89,0.00,,,0.00,0.000000,,2013-10-25 09:42:00,
2013-10-25 05:52:00,40.0,37.0,30.34,NE,50,3.0,7.0,89,0.00,,,0.00,0.000000,,2013-10-25 09:52:00,
2013-10-25 06:01:00,40.0,37.0,30.34,NE,50,3.0,7.0,89,0.00,,,0.00,0.000000,,2013-10-25 10:01:00,
2013-10-25 06:10:00,37.0,36.0,30.37,NE,49,3.0,7.0,95,0.00,,,0.00,0.000000,,2013-10-25 10:10:00,
2013-10-25 06:41:00,37.0,36.0,30.37,NE,49,3.0,7.0,95,0.00,,,0.00,0.000000,,2013-10-25 10:41:00,
2013-10-25 06:52:00,37.0,36.0,30.37,NE,49,3.0,7.0,95,0.00,,,0.00,0.000000,,2013-10-25 10:52:00,
2013-10-25 07:02:00,37.0,36.0,30.37,NE,49,3.0,7.0,95,0.00,,,0.00,0.000000,,2013-10-25 11:02:00,
2013-10-25 07:10:00,37.0,36.0,30.39,North,9,2.0,5.0,98,0.00,,,0.00,0.000000,,2013-10-25 11:10:00,
2013-10-25 07:41:00,37.0,36.0,30.39,North,9,2.0,5.0,98,0.00,,,0.00,0.000000,,2013-10-25 11:41:00,
2013-10-25 07:51:00,37.0,36.0,30.39,North,9,2.0,5.0,98,0.00,,,0.00,0.000000,,2013-10-25 11:51:00,
2013-10-25 08:01:00,37.0,36.0,30.39,North,9,2.0,5.0,98,0.00,,,0.00,0.000000,,2013-10-25 12:01:00,
2013-10-25 08:10:00,35.0,34.0,30.41,North,357,1.0,7.0,98,0.00,,,0.00,3.000000,,2013-10-25 12:10:00,
2013-10-25 08:41:00,35.0,34.0,30.41,North,357,1.0,7.0,98,0.00,,,0.00,3.000000,,2013-10-25 12:41:00,
2013-10-25 08:51:00,35.0,34.0,30.41,North,357,1.0,7.0,98,0.00,,,0.00,3.000000,,2013-10-25 12:51:00,
2013-10-25 09:02:00,35.0,34.0,30.41,North,357,1.0,7.0,98,0.00,,,0.00,3.000000,,2013-10-25 13:02:00,
2013-10-25 09:10:00,39.0,38.0,30.44,NNW,327,4.0,8.0,95,0.00,,,0.00,27.000000,,2013-10-25 13:10:00,
2013-10-25 09:42:00,39.0,38.0,30.44,NNW,327,4.0,8.0,95,0.00,,,0.00,27.000000,,2013-10-25 13:42:00,
2013-10-25 09:52:00,39.0,38.0,30.44,NNW,327,4.0,8.0,95,0.00,,,0.00,27.000000,,2013-10-25 13:52:00,
2013-10-25 10:02:00,39.0,38.0,30.44,NNW,327,4.0,8.0,95,0.00,,,0.00,27.000000,,2013-10-25 14:02:00,
2013-10-25 10:10:00,43.0,31.0,30.46,NNW,328,6.0,17.0,63,0.00,,,0.00,72.000000,,2013-10-25 14:10:00,
2013-10-25 10:42:00,43.0,31.0,30.46,NNW,328,6.0,17.0,63,0.00,,,0.00,72.000000,,2013-10-25 14:42:00,
2013-10-25 10:52:00,43.0,31.0,30.46,NNW,328,6.0,17.0,63,0.00,,,0.00,72.000000,,2013-10-25 14:52:00,
2013-10-25 11:01:00,43.0,31.0,30.46,NNW,328,6.0,17.0,63,0.00,,,0.00,72.000000,,2013-10-25 15:01:00,
2013-10-25 11:10:00,51.0,30.0,30.45,North,11,5.0,16.0,45,0.00,,,0.00,452.000000,,2013-10-25 15:10:00,
2013-10-25 11:43:00,51.0,30.0,30.45,North,11,5.0,16.0,45,0.00,,,0.00,452.000000,,2013-10-25 15:43:00,
2013-10-25 11:53:00,51.0,30.0,30.45,North,11,5.0,16.0,45,0.00,,,0.00,452.000000,,2013-10-25 15:53:00,
2013-10-25 12:03:00,51.0,30.0,30.45,North,11,5.0,16.0,45,0.00,,,0.00,452.000000,,2013-10-25 16:03:00,
2013-10-25 12:10:00,54.0,27.0,30.46,NNE,24,6.0,17.0,35,0.00,,,0.00,785.000000,,2013-10-25 16:10:00,
2013-10-25 12:43:00,54.0,27.0,30.46,NNE,24,6.0,17.0,35,0.00,,,0.00,785.000000,,2013-10-25 16:43:00,
2013-10-25 12:53:00,54.0,27.0,30.46,NNE,24,6.0,17.0,35,0.00,,,0.00,785.000000,,2013-10-25 16:53:00,
2013-10-25 13:03:00,54.0,27.0,30.46,NNE,24,6.0,17.0,35,0.00,,,0.00,785.000000,,2013-10-25 17:03:00,
2013-10-25 13:10:00,55.0,29.0,30.45,ENE,59,6.0,22.0,37,0.00,,,0.00,668.000000,,2013-10-25 17:10:00,
2013-10-25 13:43:00,55.0,29.0,30.45,ENE,59,6.0,22.0,37,0.00,,,0.00,668.000000,,2013-10-25 17:43:00,
2013-10-25 13:52:00,55.0,29.0,30.45,ENE,59,6.0,22.0,37,0.00,,,0.00,668.000000,,2013-10-25 17:52:00,
2013-10-25 14:02:00,55.0,29.0,30.45,ENE,59,6.0,22.0,37,0.00,,,0.00,668.000000,,2013-10-25 18:02:00,
2013-10-25 14:10:00,58.0,29.0,30.43,North,11,6.0,19.0,33,0.00,,,0.00,693.000000,,2013-10-25 18:10:00,
2013-10-25 14:42:00,58.0,29.0,30.43,North,11,6.0,19.0,33,0.00,,,0.00,693.000000,,2013-10-25 18:42:00,
2013-10-25 14:52:00,58.0,29.0,30.43,North,11,6.0,19.0,33,0.00,,,0.00,693.000000,,2013-10-25 18:52:00,
2013-10-25 15:02:00,58.0,29.0,30.43,North,11,6.0,19.0,33,0.00,,,0.00,693.000000,,2013-10-25 19:02:00,
2013-10-25 15:10:00,60.0,30.0,30.41,NE,37,3.0,19.0,32,0.00,,,0.00,712.000000,,2013-10-25 19:10:00,
2013-10-25 15:42:00,60.0,30.0,30.41,NE,37,3.0,19.0,32,0.00,,,0.00,712.000000,,2013-10-25 19:42:00,
2013-10-25 15:52:00,60.0,30.0,30.41,NE,37,3.0,19.0,32,0.00,,,0.00,712.000000,,2013-10-25 19:52:00,
2013-10-25 16:02:00,60.0,30.0,30.41,NE,37,3.0,19.0,32,0.00,,,0.00,712.000000,,2013-10-25 20:02:00,
2013-10-25 16:10:00,58.0,29.0,30.41,NNE,33,9.0,19.0,33,0.00,,,0.00,736.000000,,2013-10-25 20:10:00,
2013-10-25 16:42:00,58.0,29.0,30.41,NNE,33,9.0,19.0,33,0.00,,,0.00,736.000000,,2013-10-25 20:42:00,
2013-10-25 16:52:00,58.0,29.0,30.41,NNE,33,9.0,19.0,33,0.00,,,0.00,736.000000,,2013-10-25 20:52:00,
2013-10-25 17:02:00,58.0,29.0,30.41,NNE,33,9.0,19.0,33,0.00,,,0.00,736.000000,,2013-10-25 21:02:00,
2013-10-25 17:10:00,58.0,30.0,30.43,East,79,5.0,18.0,34,0.00,,,0.00,483.000000,,2013-10-25 21:10:00,
2013-10-25 17:43:00,58.0,30.0,30.43,East,79,5.0,18.0,34,0.00,,,0.00,483.000000,,2013-10-25 21:43:00,
2013-10-25 17:54:00,58.0,30.0,30.43,East,79,5.0,18.0,34,0.00,,,0.00,483.000000,,2013-10-25 21:54:00,
2013-10-25 18:04:00,58.0,30.0,30.43,East,79,5.0,18.0,34,0.00,,,0.00,483.000000,,2013-10-25 22:04:00,
2013-10-25 18:10:00,52.0,30.0,30.43,NNW,336,3.0,14.0,42,0.00,,,0.00,231.000000,,2013-10-25 22:10:00,
2013-10-25 18:42:00,52.0,30.0,30.43,NNW,336,3.0,14.0,42,0.00,,,0.00,231.000000,,2013-10-25 22:42:00,
2013-10-25 18:53:00,52.0,30.0,30.43,NNW,336,3.0,14.0,42,0.00,,,0.00,231.000000,,2013-10-25 22:53:00,
2013-10-25 19:03:00,52.0,30.0,30.43,NNW,336,3.0,14.0,42,0.00,,,0.00,231.000000,,2013-10-25 23:03:00,
2013-10-25 19:10:00,41.0,33.0,30.44,NNW,340,4.0,9.0,72,0.00,,,0.00,16.000000,,2013-10-25 23:10:00,
2013-10-25 19:42:00,41.0,33.0,30.44,NNW,340,4.0,9.0,72,0.00,,,0.00,16.000000,,2013-10-25 23:42:00,
2013-10-25 19:53:00,41.0,33.0,30.44,NNW,340,4.0,9.0,72,0.00,,,0.00,16.000000,,2013-10-25 23:53:00,
2013-10-25 20:02:00,41.0,33.0,30.44,NNW,340,4.0,9.0,72,0.00,,,0.00,16.000000,,2013-10-26 00:02:00,
2013-10-25 20:10:00,37.0,31.0,30.46,NNW,337,3.0,10.0,79,0.00,,,0.00,0.000000,,2013-10-26 00:10:00,
2013-10-25 20:42:00,37.0,31.0,30.46,NNW,337,3.0,10.0,79,0.00,,,0.00,0.000000,,2013-10-26 00:42:00,
2013-10-25 20:52:00,37.0,31.0,30.46,NNW,337,3.0,10.0,79,0.00,,,0.00,0.000000,,2013-10-26 00:52:00,
2013-10-25 21:01:00,37.0,31.0,30.46,NNW,337,3.0,10.0,79,0.00,,,0.00,0.000000,,2013-10-26 01:01:00,
2013-10-25 21:10:00,37.0,32.0,30.47,North,356,3.0,8.0,83,0.00,,,0.00,0.000000,,2013-10-26 01:10:00,
2013-10-25 21:42:00,37.0,32.0,30.47,North,356,3.0,8.0,83,0.00,,,0.00,0.000000,,2013-10-26 01:42:00,
2013-10-25 21:52:00,37.0,32.0,30.47,North,356,3.0,8.0,83,0.00,,,0.00,0.000000,,2013-10-26 01:52:00,
2013-10-25 22:02:00,37.0,32.0,30.47,North,356,3.0,8.0,83,0.00,,,0.00,0.000000,,2013-10-26 02:02:00,
2013-10-25 22:10:00,34.0,30.0,30.48,NNW,341,3.0,8.0,86,0.00,,,0.00,0.000000,,2013-10-26 02:10:00,
2013-10-25 22:43:00,34.0,30.0,30.48,NNW,341,3.0,8.0,86,0.00,,,0.00,0.000000,,2013-10-26 02:43:00,
2013-10-25 22:52:00,34.0,30.0,30.48,NNW,341,3.0,8.0,86,0.00,,,0.00,0.000000,,2013-10-26 02:52:00,
2013-10-25 23:02:00,34.0,30.0,30.48,NNW,341,3.0,8.0,86,0.00,,,0.00,0.000000,,2013-10-26 03:02:00,
2013-10-25 23:10:00,35.0,31.0,30.49,North,356,3.0,10.0,85,0.00,,,0.00,0.000000,,2013-10-26 03:10:00,
2013-10-25 23:45:00,35.0,31.0,30.49,North,356,3.0,10.0,85,0.00,,,0.00,0.000000,,2013-10-26 03:45:00,
2013-10-25 23:54:00,35.0,31.0,30.49,North,356,3.0,10.0,85,0.00,,,0.00,0.000000,,2013-10-26 03:54:00,